sensor_id;sensor_type;location;lat;lon;timestamp;temperature;humidity
55083;DHT22;40978;52.850;6.506;2023-07-13T00:02:07;15.20;99.90
55083;DHT22;40978;52.850;6.506;2023-07-13T00:04:32;15.20;99.90
55083;DHT22;40978;52.850;6.506;2023-07-13T00:06:58;15.20;99.90
55083;DHT22;40978;52.850;6.506;2023-07-13T00:09:24;15.30;99.90
55083;DHT22;40978;52.850;6.506;2023-07-13T00:11:52;15.30;99.90
55083;DHT22;40978;52.850;6.506;2023-07-13T00:14:19;15.20;99.90
55083;DHT22;40978;52.850;6.506;2023-07-13T00:16:45;15.20;99.90
55083;DHT22;40978;52.850;6.506;2023-07-13T00:19:12;15.30;99.90
55083;DHT22;40978;52.850;6.506;2023-07-13T00:21:39;15.30;99.90
55083;DHT22;40978;52.850;6.506;2023-07-13T00:24:06;15.30;99.90
55083;DHT22;40978;52.850;6.506;2023-07-13T00:26:32;15.40;99.90
55083;DHT22;40978;52.850;6.506;2023-07-13T00:28:59;15.40;99.90
55083;DHT22;40978;52.850;6.506;2023-07-13T00:31:25;15.40;99.90
55083;DHT22;40978;52.850;6.506;2023-07-13T00:33:51;15.40;99.90
55083;DHT22;40978;52.850;6.506;2023-07-13T00:36:16;15.50;99.90
55083;DHT22;40978;52.850;6.506;2023-07-13T00:38:43;15.50;99.90
55083;DHT22;40978;52.850;6.506;2023-07-13T00:41:09;15.50;99.90
55083;DHT22;40978;52.850;6.506;2023-07-13T00:43:35;15.50;99.90
55083;DHT22;40978;52.850;6.506;2023-07-13T00:48:32;15.50;99.90
55083;DHT22;40978;52.850;6.506;2023-07-13T00:50:59;15.50;99.90
55083;DHT22;40978;52.850;6.506;2023-07-13T00:53:27;15.50;99.90
55083;DHT22;40978;52.850;6.506;2023-07-13T00:55:56;15.50;99.90
55083;DHT22;40978;52.850;6.506;2023-07-13T00:58:24;15.50;99.90
55083;DHT22;40978;52.850;6.506;2023-07-13T01:00:51;15.50;99.90
55083;DHT22;40978;52.850;6.506;2023-07-13T01:03:18;15.50;99.90
55083;DHT22;40978;52.850;6.506;2023-07-13T01:05:47;15.50;99.90
55083;DHT22;40978;52.850;6.506;2023-07-13T01:08:13;15.40;99.90
55083;DHT22;40978;52.850;6.506;2023-07-13T01:10:39;15.40;99.90
55083;DHT22;40978;52.850;6.506;2023-07-13T01:13:07;15.40;99.90
55083;DHT22;40978;52.850;6.506;2023-07-13T01:15:40;15.30;99.90
55083;DHT22;40978;52.850;6.506;2023-07-13T01:18:12;15.30;99.90
55083;DHT22;40978;52.850;6.506;2023-07-13T01:20:39;15.30;99.90
55083;DHT22;40978;52.850;6.506;2023-07-13T01:23:08;15.30;99.90
55083;DHT22;40978;52.850;6.506;2023-07-13T01:25:35;15.20;99.90
55083;DHT22;40978;52.850;6.506;2023-07-13T01:28:02;15.20;99.90
55083;DHT22;40978;52.850;6.506;2023-07-13T01:30:28;15.20;99.90
55083;DHT22;40978;52.850;6.506;2023-07-13T01:32:54;15.20;99.90
55083;DHT22;40978;52.850;6.506;2023-07-13T01:35:20;15.30;99.90
55083;DHT22;40978;52.850;6.506;2023-07-13T01:37:46;15.30;99.90
55083;DHT22;40978;52.850;6.506;2023-07-13T01:40:12;15.30;99.90
55083;DHT22;40978;52.850;6.506;2023-07-13T01:42:38;15.20;99.90
55083;DHT22;40978;52.850;6.506;2023-07-13T01:45:04;15.20;99.90
55083;DHT22;40978;52.850;6.506;2023-07-13T01:47:30;15.20;99.90
55083;DHT22;40978;52.850;6.506;2023-07-13T01:49:57;15.20;99.90
55083;DHT22;40978;52.850;6.506;2023-07-13T01:52:23;15.20;99.90
55083;DHT22;40978;52.850;6.506;2023-07-13T01:54:48;15.20;99.90
55083;DHT22;40978;52.850;6.506;2023-07-13T01:57:14;15.10;99.90
55083;DHT22;40978;52.850;6.506;2023-07-13T01:59:40;15.10;99.90
55083;DHT22;40978;52.850;6.506;2023-07-13T02:02:06;15.10;99.90
55083;DHT22;40978;52.850;6.506;2023-07-13T02:04:31;15.10;99.90
55083;DHT22;40978;52.850;6.506;2023-07-13T02:06:57;15.00;99.90
55083;DHT22;40978;52.850;6.506;2023-07-13T02:09:23;15.00;99.90
55083;DHT22;40978;52.850;6.506;2023-07-13T02:11:49;15.00;99.90
55083;DHT22;40978;52.850;6.506;2023-07-13T02:14:14;15.00;99.90
55083;DHT22;40978;52.850;6.506;2023-07-13T02:16:41;14.90;99.90
55083;DHT22;40978;52.850;6.506;2023-07-13T02:19:07;14.90;99.90
55083;DHT22;40978;52.850;6.506;2023-07-13T02:21:33;14.80;99.90
55083;DHT22;40978;52.850;6.506;2023-07-13T02:23:59;14.80;99.90
55083;DHT22;40978;52.850;6.506;2023-07-13T02:26:25;14.80;99.90
55083;DHT22;40978;52.850;6.506;2023-07-13T02:28:51;14.80;99.90
55083;DHT22;40978;52.850;6.506;2023-07-13T02:31:18;14.70;99.90
55083;DHT22;40978;52.850;6.506;2023-07-13T02:33:44;14.70;99.90
55083;DHT22;40978;52.850;6.506;2023-07-13T02:36:11;14.70;99.90
55083;DHT22;40978;52.850;6.506;2023-07-13T02:38:37;14.70;99.90
55083;DHT22;40978;52.850;6.506;2023-07-13T02:41:04;14.60;99.90
55083;DHT22;40978;52.850;6.506;2023-07-13T02:43:31;14.60;99.90
55083;DHT22;40978;52.850;6.506;2023-07-13T02:45:56;14.60;99.90
55083;DHT22;40978;52.850;6.506;2023-07-13T02:48:26;14.60;99.90
55083;DHT22;40978;52.850;6.506;2023-07-13T02:50:51;14.60;99.90
55083;DHT22;40978;52.850;6.506;2023-07-13T02:53:17;14.50;99.90
55083;DHT22;40978;52.850;6.506;2023-07-13T02:55:42;14.50;99.90
55083;DHT22;40978;52.850;6.506;2023-07-13T02:58:13;14.50;99.90
55083;DHT22;40978;52.850;6.506;2023-07-13T03:00:46;14.50;99.90
55083;DHT22;40978;52.850;6.506;2023-07-13T03:03:13;14.50;99.90
55083;DHT22;40978;52.850;6.506;2023-07-13T03:05:41;14.50;99.90
55083;DHT22;40978;52.850;6.506;2023-07-13T03:08:08;14.40;99.90
55083;DHT22;40978;52.850;6.506;2023-07-13T03:10:33;14.40;99.90
55083;DHT22;40978;52.850;6.506;2023-07-13T03:12:59;14.40;99.90
55083;DHT22;40978;52.850;6.506;2023-07-13T03:15:25;14.40;99.90
55083;DHT22;40978;52.850;6.506;2023-07-13T03:17:50;14.40;99.90
55083;DHT22;40978;52.850;6.506;2023-07-13T03:20:16;14.40;99.90
55083;DHT22;40978;52.850;6.506;2023-07-13T03:22:42;14.40;99.90
55083;DHT22;40978;52.850;6.506;2023-07-13T03:25:08;14.40;99.90
55083;DHT22;40978;52.850;6.506;2023-07-13T03:27:34;14.40;99.90
55083;DHT22;40978;52.850;6.506;2023-07-13T03:30:00;14.40;99.90
55083;DHT22;40978;52.850;6.506;2023-07-13T03:32:26;14.40;99.90
55083;DHT22;40978;52.850;6.506;2023-07-13T03:34:52;14.40;99.90
55083;DHT22;40978;52.850;6.506;2023-07-13T03:37:18;14.40;99.90
55083;DHT22;40978;52.850;6.506;2023-07-13T03:39:44;14.40;99.90
55083;DHT22;40978;52.850;6.506;2023-07-13T03:42:09;14.40;99.90
55083;DHT22;40978;52.850;6.506;2023-07-13T03:44:35;14.50;99.90
55083;DHT22;40978;52.850;6.506;2023-07-13T03:47:01;14.60;99.90
55083;DHT22;40978;52.850;6.506;2023-07-13T03:49:26;14.60;99.90
55083;DHT22;40978;52.850;6.506;2023-07-13T03:51:52;14.60;99.90
55083;DHT22;40978;52.850;6.506;2023-07-13T03:54:18;14.70;99.90
55083;DHT22;40978;52.850;6.506;2023-07-13T03:56:43;14.70;99.90
55083;DHT22;40978;52.850;6.506;2023-07-13T03:59:09;14.70;99.90
55083;DHT22;40978;52.850;6.506;2023-07-13T04:01:35;14.70;99.90
55083;DHT22;40978;52.850;6.506;2023-07-13T04:04:00;14.70;99.90
55083;DHT22;40978;52.850;6.506;2023-07-13T04:06:28;14.70;99.90
55083;DHT22;40978;52.850;6.506;2023-07-13T04:08:57;14.80;99.90
55083;DHT22;40978;52.850;6.506;2023-07-13T04:11:25;14.70;99.90
55083;DHT22;40978;52.850;6.506;2023-07-13T04:13:52;14.70;99.90
55083;DHT22;40978;52.850;6.506;2023-07-13T04:16:19;14.70;99.90
55083;DHT22;40978;52.850;6.506;2023-07-13T04:18:45;14.70;99.90
55083;DHT22;40978;52.850;6.506;2023-07-13T04:21:12;14.70;99.90
55083;DHT22;40978;52.850;6.506;2023-07-13T04:23:38;14.70;99.90
55083;DHT22;40978;52.850;6.506;2023-07-13T04:26:04;14.70;99.90
55083;DHT22;40978;52.850;6.506;2023-07-13T04:28:31;14.80;99.90
55083;DHT22;40978;52.850;6.506;2023-07-13T04:30:56;14.80;99.90
55083;DHT22;40978;52.850;6.506;2023-07-13T04:33:22;14.80;99.90
55083;DHT22;40978;52.850;6.506;2023-07-13T04:35:50;14.80;99.90
55083;DHT22;40978;52.850;6.506;2023-07-13T04:38:20;14.80;99.90
55083;DHT22;40978;52.850;6.506;2023-07-13T04:40:47;14.90;99.90
55083;DHT22;40978;52.850;6.506;2023-07-13T04:43:12;14.90;99.90
55083;DHT22;40978;52.850;6.506;2023-07-13T04:45:38;14.90;99.90
55083;DHT22;40978;52.850;6.506;2023-07-13T04:48:04;15.10;99.90
55083;DHT22;40978;52.850;6.506;2023-07-13T04:50:30;15.10;99.90
55083;DHT22;40978;52.850;6.506;2023-07-13T04:52:56;15.20;99.90
55083;DHT22;40978;52.850;6.506;2023-07-13T04:55:22;15.20;99.90
55083;DHT22;40978;52.850;6.506;2023-07-13T04:57:47;15.20;99.90
55083;DHT22;40978;52.850;6.506;2023-07-13T05:00:14;15.30;99.90
55083;DHT22;40978;52.850;6.506;2023-07-13T05:02:43;15.40;99.90
55083;DHT22;40978;52.850;6.506;2023-07-13T05:05:09;15.60;99.90
55083;DHT22;40978;52.850;6.506;2023-07-13T05:07:35;16.00;99.90
55083;DHT22;40978;52.850;6.506;2023-07-13T05:10:02;16.40;99.90
55083;DHT22;40978;52.850;6.506;2023-07-13T05:12:29;16.60;99.90
55083;DHT22;40978;52.850;6.506;2023-07-13T05:14:56;16.70;99.90
55083;DHT22;40978;52.850;6.506;2023-07-13T05:17:21;17.00;99.90
55083;DHT22;40978;52.850;6.506;2023-07-13T05:19:47;17.30;99.90
55083;DHT22;40978;52.850;6.506;2023-07-13T05:22:13;17.50;99.90
55083;DHT22;40978;52.850;6.506;2023-07-13T05:24:39;17.50;99.90
55083;DHT22;40978;52.850;6.506;2023-07-13T05:27:05;17.40;99.90
55083;DHT22;40978;52.850;6.506;2023-07-13T05:29:31;17.40;99.90
55083;DHT22;40978;52.850;6.506;2023-07-13T05:31:56;17.30;99.90
55083;DHT22;40978;52.850;6.506;2023-07-13T05:34:22;17.20;99.90
55083;DHT22;40978;52.850;6.506;2023-07-13T05:36:48;17.20;99.90
55083;DHT22;40978;52.850;6.506;2023-07-13T05:39:15;17.20;99.90
55083;DHT22;40978;52.850;6.506;2023-07-13T05:41:40;17.10;99.90
55083;DHT22;40978;52.850;6.506;2023-07-13T05:44:06;17.20;99.90
55083;DHT22;40978;52.850;6.506;2023-07-13T05:46:32;17.20;99.90
55083;DHT22;40978;52.850;6.506;2023-07-13T05:48:58;17.20;99.90
55083;DHT22;40978;52.850;6.506;2023-07-13T05:51:23;17.20;99.90
55083;DHT22;40978;52.850;6.506;2023-07-13T05:53:51;17.30;99.90
55083;DHT22;40978;52.850;6.506;2023-07-13T05:56:17;17.30;99.90
55083;DHT22;40978;52.850;6.506;2023-07-13T05:58:43;17.40;99.90
55083;DHT22;40978;52.850;6.506;2023-07-13T06:01:11;17.50;99.90
55083;DHT22;40978;52.850;6.506;2023-07-13T06:03:37;17.50;99.90
55083;DHT22;40978;52.850;6.506;2023-07-13T06:06:07;17.60;99.90
55083;DHT22;40978;52.850;6.506;2023-07-13T06:08:33;17.70;99.90
55083;DHT22;40978;52.850;6.506;2023-07-13T06:11:17;17.80;99.90
55083;DHT22;40978;52.850;6.506;2023-07-13T06:13:44;17.90;99.90
55083;DHT22;40978;52.850;6.506;2023-07-13T06:16:10;18.00;99.90
55083;DHT22;40978;52.850;6.506;2023-07-13T06:18:37;18.00;99.90
55083;DHT22;40978;52.850;6.506;2023-07-13T06:21:11;18.20;99.90
55083;DHT22;40978;52.850;6.506;2023-07-13T06:23:37;18.30;99.90
55083;DHT22;40978;52.850;6.506;2023-07-13T06:26:04;18.40;99.90
55083;DHT22;40978;52.850;6.506;2023-07-13T06:28:30;18.40;99.90
55083;DHT22;40978;52.850;6.506;2023-07-13T06:30:58;18.50;99.90
55083;DHT22;40978;52.850;6.506;2023-07-13T06:33:24;18.60;99.90
55083;DHT22;40978;52.850;6.506;2023-07-13T06:35:49;18.70;99.90
55083;DHT22;40978;52.850;6.506;2023-07-13T06:38:15;18.80;99.90
55083;DHT22;40978;52.850;6.506;2023-07-13T06:40:41;18.80;99.90
55083;DHT22;40978;52.850;6.506;2023-07-13T06:43:07;19.00;99.90
55083;DHT22;40978;52.850;6.506;2023-07-13T06:45:45;19.20;99.90
55083;DHT22;40978;52.850;6.506;2023-07-13T06:48:13;19.30;99.90
55083;DHT22;40978;52.850;6.506;2023-07-13T06:50:39;19.50;99.90
55083;DHT22;40978;52.850;6.506;2023-07-13T06:53:05;19.60;99.90
55083;DHT22;40978;52.850;6.506;2023-07-13T06:55:30;19.60;99.90
55083;DHT22;40978;52.850;6.506;2023-07-13T06:57:57;19.60;99.90
55083;DHT22;40978;52.850;6.506;2023-07-13T07:00:23;19.60;99.90
55083;DHT22;40978;52.850;6.506;2023-07-13T07:02:49;19.60;99.90
55083;DHT22;40978;52.850;6.506;2023-07-13T07:05:15;19.60;99.90
55083;DHT22;40978;52.850;6.506;2023-07-13T07:07:41;19.60;99.90
55083;DHT22;40978;52.850;6.506;2023-07-13T07:10:07;19.60;99.90
55083;DHT22;40978;52.850;6.506;2023-07-13T07:12:32;19.60;99.90
55083;DHT22;40978;52.850;6.506;2023-07-13T07:14:59;19.70;99.90
55083;DHT22;40978;52.850;6.506;2023-07-13T07:17:24;19.70;99.90
55083;DHT22;40978;52.850;6.506;2023-07-13T07:19:52;19.70;99.90
55083;DHT22;40978;52.850;6.506;2023-07-13T07:22:20;19.70;99.90
55083;DHT22;40978;52.850;6.506;2023-07-13T07:24:46;19.80;99.90
55083;DHT22;40978;52.850;6.506;2023-07-13T07:27:12;19.80;99.90
55083;DHT22;40978;52.850;6.506;2023-07-13T07:29:37;19.80;99.90
55083;DHT22;40978;52.850;6.506;2023-07-13T07:32:03;19.70;99.90
55083;DHT22;40978;52.850;6.506;2023-07-13T07:34:30;19.70;99.90
55083;DHT22;40978;52.850;6.506;2023-07-13T07:37:00;19.70;99.90
55083;DHT22;40978;52.850;6.506;2023-07-13T07:39:26;19.70;99.90
55083;DHT22;40978;52.850;6.506;2023-07-13T07:41:52;19.70;99.90
55083;DHT22;40978;52.850;6.506;2023-07-13T07:44:18;19.60;99.90
55083;DHT22;40978;52.850;6.506;2023-07-13T07:46:44;19.60;99.90
55083;DHT22;40978;52.850;6.506;2023-07-13T07:49:09;19.50;99.90
55083;DHT22;40978;52.850;6.506;2023-07-13T07:51:36;19.50;99.90
55083;DHT22;40978;52.850;6.506;2023-07-13T07:54:03;19.50;99.90
55083;DHT22;40978;52.850;6.506;2023-07-13T07:56:29;19.60;99.90
55083;DHT22;40978;52.850;6.506;2023-07-13T07:58:55;19.60;99.90
55083;DHT22;40978;52.850;6.506;2023-07-13T08:01:21;19.70;99.90
55083;DHT22;40978;52.850;6.506;2023-07-13T08:03:47;19.80;99.90
55083;DHT22;40978;52.850;6.506;2023-07-13T08:06:13;19.90;99.90
55083;DHT22;40978;52.850;6.506;2023-07-13T08:08:39;20.00;99.90
55083;DHT22;40978;52.850;6.506;2023-07-13T08:11:06;20.00;99.90
55083;DHT22;40978;52.850;6.506;2023-07-13T08:13:32;20.10;99.90
55083;DHT22;40978;52.850;6.506;2023-07-13T08:15:59;20.20;99.90
55083;DHT22;40978;52.850;6.506;2023-07-13T08:18:25;20.20;99.90
55083;DHT22;40978;52.850;6.506;2023-07-13T08:20:51;20.10;99.90
55083;DHT22;40978;52.850;6.506;2023-07-13T08:23:17;19.90;99.90
55083;DHT22;40978;52.850;6.506;2023-07-13T08:25:51;19.70;99.90
55083;DHT22;40978;52.850;6.506;2023-07-13T08:28:16;19.40;99.90
55083;DHT22;40978;52.850;6.506;2023-07-13T08:30:42;19.30;99.90
55083;DHT22;40978;52.850;6.506;2023-07-13T08:33:08;19.00;99.90
55083;DHT22;40978;52.850;6.506;2023-07-13T08:35:33;18.60;99.90
55083;DHT22;40978;52.850;6.506;2023-07-13T08:37:59;18.30;99.90
55083;DHT22;40978;52.850;6.506;2023-07-13T08:40:27;18.00;99.90
55083;DHT22;40978;52.850;6.506;2023-07-13T08:42:58;17.70;99.90
55083;DHT22;40978;52.850;6.506;2023-07-13T08:45:43;17.40;99.90
55083;DHT22;40978;52.850;6.506;2023-07-13T08:48:23;17.20;99.90
55083;DHT22;40978;52.850;6.506;2023-07-13T08:51:18;17.10;99.90
55083;DHT22;40978;52.850;6.506;2023-07-13T08:53:50;17.00;99.90
55083;DHT22;40978;52.850;6.506;2023-07-13T08:56:24;17.00;99.90
55083;DHT22;40978;52.850;6.506;2023-07-13T08:59:09;17.00;99.90
55083;DHT22;40978;52.850;6.506;2023-07-13T09:04:14;16.90;99.90
55083;DHT22;40978;52.850;6.506;2023-07-13T09:07:16;16.90;99.90
55083;DHT22;40978;52.850;6.506;2023-07-13T09:12:27;16.80;99.90
55083;DHT22;40978;52.850;6.506;2023-07-13T09:14:58;16.80;99.90
55083;DHT22;40978;52.850;6.506;2023-07-13T09:17:35;16.80;99.90
55083;DHT22;40978;52.850;6.506;2023-07-13T09:20:22;16.70;99.90
55083;DHT22;40978;52.850;6.506;2023-07-13T09:22:51;16.50;99.90
55083;DHT22;40978;52.850;6.506;2023-07-13T09:25:34;16.40;99.90
55083;DHT22;40978;52.850;6.506;2023-07-13T09:28:22;16.10;99.90
55083;DHT22;40978;52.850;6.506;2023-07-13T09:31:10;15.80;99.90
55083;DHT22;40978;52.850;6.506;2023-07-13T09:33:38;15.70;99.90
55083;DHT22;40978;52.850;6.506;2023-07-13T09:36:31;15.50;99.90
55083;DHT22;40978;52.850;6.506;2023-07-13T09:39:31;15.40;99.90
55083;DHT22;40978;52.850;6.506;2023-07-13T09:44:38;15.70;99.90
55083;DHT22;40978;52.850;6.506;2023-07-13T09:47:19;15.90;99.90
55083;DHT22;40978;52.850;6.506;2023-07-13T09:49:45;16.30;99.90
55083;DHT22;40978;52.850;6.506;2023-07-13T09:52:15;16.70;99.90
55083;DHT22;40978;52.850;6.506;2023-07-13T09:54:45;17.00;99.90
55083;DHT22;40978;52.850;6.506;2023-07-13T09:57:23;17.20;99.90
55083;DHT22;40978;52.850;6.506;2023-07-13T09:59:51;17.70;99.90
55083;DHT22;40978;52.850;6.506;2023-07-13T10:05:02;18.60;99.90
55083;DHT22;40978;52.850;6.506;2023-07-13T10:07:30;19.00;99.90
55083;DHT22;40978;52.850;6.506;2023-07-13T10:10:00;19.30;99.90
55083;DHT22;40978;52.850;6.506;2023-07-13T10:12:27;19.50;99.90
55083;DHT22;40978;52.850;6.506;2023-07-13T10:14:59;19.80;99.90
55083;DHT22;40978;52.850;6.506;2023-07-13T10:17:29;20.10;99.90
55083;DHT22;40978;52.850;6.506;2023-07-13T10:20:03;20.40;99.90
55083;DHT22;40978;52.850;6.506;2023-07-13T10:25:18;20.90;99.90
55083;DHT22;40978;52.850;6.506;2023-07-13T10:27:44;21.20;99.90
55083;DHT22;40978;52.850;6.506;2023-07-13T10:30:12;21.40;99.90
55083;DHT22;40978;52.850;6.506;2023-07-13T10:32:39;21.50;99.90
55083;DHT22;40978;52.850;6.506;2023-07-13T10:35:08;21.70;99.90
55083;DHT22;40978;52.850;6.506;2023-07-13T10:37:54;21.80;99.90
55083;DHT22;40978;52.850;6.506;2023-07-13T10:40:29;21.90;99.90
55083;DHT22;40978;52.850;6.506;2023-07-13T10:42:57;22.10;99.90
55083;DHT22;40978;52.850;6.506;2023-07-13T10:45:24;22.30;99.90
55083;DHT22;40978;52.850;6.506;2023-07-13T10:47:52;22.50;99.90
55083;DHT22;40978;52.850;6.506;2023-07-13T10:50:26;22.60;99.90
55083;DHT22;40978;52.850;6.506;2023-07-13T10:52:55;22.70;99.90
55083;DHT22;40978;52.850;6.506;2023-07-13T10:55:40;22.60;99.90
55083;DHT22;40978;52.850;6.506;2023-07-13T10:58:22;22.40;99.90
55083;DHT22;40978;52.850;6.506;2023-07-13T11:01:11;22.20;99.90
55083;DHT22;40978;52.850;6.506;2023-07-13T11:03:48;22.00;99.90
55083;DHT22;40978;52.850;6.506;2023-07-13T11:06:29;21.80;99.90
55083;DHT22;40978;52.850;6.506;2023-07-13T11:08:58;21.50;99.90
55083;DHT22;40978;52.850;6.506;2023-07-13T11:18:51;20.10;99.90
55083;DHT22;40978;52.850;6.506;2023-07-13T11:21:22;19.90;99.90
55083;DHT22;40978;52.850;6.506;2023-07-13T11:23:54;19.60;99.90
55083;DHT22;40978;52.850;6.506;2023-07-13T11:26:43;19.40;99.90
55083;DHT22;40978;52.850;6.506;2023-07-13T11:29:27;19.30;99.90
55083;DHT22;40978;52.850;6.506;2023-07-13T11:32:00;19.40;99.90
55083;DHT22;40978;52.850;6.506;2023-07-13T11:36:52;20.10;99.90
55083;DHT22;40978;52.850;6.506;2023-07-13T11:39:19;20.40;99.90
55083;DHT22;40978;52.850;6.506;2023-07-13T11:41:59;20.90;99.90
55083;DHT22;40978;52.850;6.506;2023-07-13T11:44:28;21.50;99.90
55083;DHT22;40978;52.850;6.506;2023-07-13T11:46:56;22.00;99.90
55083;DHT22;40978;52.850;6.506;2023-07-13T11:49:29;22.10;99.90
55083;DHT22;40978;52.850;6.506;2023-07-13T11:51:58;21.90;99.90
55083;DHT22;40978;52.850;6.506;2023-07-13T11:54:30;21.70;99.90
55083;DHT22;40978;52.850;6.506;2023-07-13T11:57:02;21.50;99.90
55083;DHT22;40978;52.850;6.506;2023-07-13T11:59:32;21.70;99.90
55083;DHT22;40978;52.850;6.506;2023-07-13T12:01:59;22.00;99.90
55083;DHT22;40978;52.850;6.506;2023-07-13T12:04:28;22.30;99.90
55083;DHT22;40978;52.850;6.506;2023-07-13T12:07:11;22.60;99.90
55083;DHT22;40978;52.850;6.506;2023-07-13T12:09:39;22.70;99.90
55083;DHT22;40978;52.850;6.506;2023-07-13T12:12:13;22.70;99.90
55083;DHT22;40978;52.850;6.506;2023-07-13T12:14:40;22.80;99.90
55083;DHT22;40978;52.850;6.506;2023-07-13T12:17:17;23.00;99.90
55083;DHT22;40978;52.850;6.506;2023-07-13T12:19:44;23.20;99.90
55083;DHT22;40978;52.850;6.506;2023-07-13T12:22:12;23.50;99.90
55083;DHT22;40978;52.850;6.506;2023-07-13T12:24:40;24.00;99.90
55083;DHT22;40978;52.850;6.506;2023-07-13T12:27:14;24.30;99.90
55083;DHT22;40978;52.850;6.506;2023-07-13T12:32:20;24.50;99.90
55083;DHT22;40978;52.850;6.506;2023-07-13T12:34:56;24.40;99.90
55083;DHT22;40978;52.850;6.506;2023-07-13T12:37:23;24.30;99.90
55083;DHT22;40978;52.850;6.506;2023-07-13T12:39:49;24.30;99.90
55083;DHT22;40978;52.850;6.506;2023-07-13T12:42:28;24.40;99.90
55083;DHT22;40978;52.850;6.506;2023-07-13T12:47:25;24.30;98.60
55083;DHT22;40978;52.850;6.506;2023-07-13T12:49:55;24.40;99.90
55083;DHT22;40978;52.850;6.506;2023-07-13T12:52:30;24.40;98.40
55083;DHT22;40978;52.850;6.506;2023-07-13T12:55:07;24.40;94.70
55083;DHT22;40978;52.850;6.506;2023-07-13T12:58:02;24.60;96.00
55083;DHT22;40978;52.850;6.506;2023-07-13T13:00:35;24.80;96.80
55083;DHT22;40978;52.850;6.506;2023-07-13T13:03:12;25.10;99.90
55083;DHT22;40978;52.850;6.506;2023-07-13T13:05:44;25.20;98.80
55083;DHT22;40978;52.850;6.506;2023-07-13T13:08:11;25.30;99.50
55083;DHT22;40978;52.850;6.506;2023-07-13T13:10:37;25.40;99.90
55083;DHT22;40978;52.850;6.506;2023-07-13T13:13:03;25.40;99.10
55083;DHT22;40978;52.850;6.506;2023-07-13T13:15:29;25.30;91.40
55083;DHT22;40978;52.850;6.506;2023-07-13T13:17:55;25.30;91.20
55083;DHT22;40978;52.850;6.506;2023-07-13T13:20:22;25.40;99.00
55083;DHT22;40978;52.850;6.506;2023-07-13T13:22:48;25.50;98.60
55083;DHT22;40978;52.850;6.506;2023-07-13T13:25:15;25.70;95.90
55083;DHT22;40978;52.850;6.506;2023-07-13T13:27:41;25.90;98.70
55083;DHT22;40978;52.850;6.506;2023-07-13T13:30:14;26.00;99.90
55083;DHT22;40978;52.850;6.506;2023-07-13T13:32:42;25.90;87.10
55083;DHT22;40978;52.850;6.506;2023-07-13T13:35:16;25.80;94.90
55083;DHT22;40978;52.850;6.506;2023-07-13T13:37:42;25.70;90.70
55083;DHT22;40978;52.850;6.506;2023-07-13T13:40:21;25.60;89.40
55083;DHT22;40978;52.850;6.506;2023-07-13T13:42:53;25.50;90.90
55083;DHT22;40978;52.850;6.506;2023-07-13T13:45:21;25.40;81.70
55083;DHT22;40978;52.850;6.506;2023-07-13T13:47:47;25.20;90.40
55083;DHT22;40978;52.850;6.506;2023-07-13T13:50:21;25.10;83.00
55083;DHT22;40978;52.850;6.506;2023-07-13T13:52:50;24.90;85.90
55083;DHT22;40978;52.850;6.506;2023-07-13T13:55:21;24.60;81.90
55083;DHT22;40978;52.850;6.506;2023-07-13T13:57:47;24.20;83.70
55083;DHT22;40978;52.850;6.506;2023-07-13T14:00:14;24.00;87.60
55083;DHT22;40978;52.850;6.506;2023-07-13T14:02:44;23.90;92.90
55083;DHT22;40978;52.850;6.506;2023-07-13T14:05:14;23.80;90.80
55083;DHT22;40978;52.850;6.506;2023-07-13T14:07:41;23.50;93.30
55083;DHT22;40978;52.850;6.506;2023-07-13T14:10:15;23.40;88.50
55083;DHT22;40978;52.850;6.506;2023-07-13T14:12:43;23.20;90.40
55083;DHT22;40978;52.850;6.506;2023-07-13T14:15:30;23.00;91.60
55083;DHT22;40978;52.850;6.506;2023-07-13T14:17:59;22.90;89.00
55083;DHT22;40978;52.850;6.506;2023-07-13T14:20:26;22.60;91.10
55083;DHT22;40978;52.850;6.506;2023-07-13T14:22:52;22.30;92.70
55083;DHT22;40978;52.850;6.506;2023-07-13T14:25:19;22.10;92.20
55083;DHT22;40978;52.850;6.506;2023-07-13T14:27:48;21.90;95.80
55083;DHT22;40978;52.850;6.506;2023-07-13T14:30:16;21.90;95.00
55083;DHT22;40978;52.850;6.506;2023-07-13T14:32:43;21.80;97.40
55083;DHT22;40978;52.850;6.506;2023-07-13T14:35:13;21.80;98.40
55083;DHT22;40978;52.850;6.506;2023-07-13T14:37:43;21.80;98.50
55083;DHT22;40978;52.850;6.506;2023-07-13T14:40:28;21.80;98.50
55083;DHT22;40978;52.850;6.506;2023-07-13T14:42:54;21.70;97.50
55083;DHT22;40978;52.850;6.506;2023-07-13T14:45:20;21.60;98.20
55083;DHT22;40978;52.850;6.506;2023-07-13T14:47:47;21.60;98.80
55083;DHT22;40978;52.850;6.506;2023-07-13T14:50:15;21.70;99.90
55083;DHT22;40978;52.850;6.506;2023-07-13T14:52:42;21.60;99.90
55083;DHT22;40978;52.850;6.506;2023-07-13T14:55:12;21.60;98.50
55083;DHT22;40978;52.850;6.506;2023-07-13T14:57:38;21.60;99.90
55083;DHT22;40978;52.850;6.506;2023-07-13T15:00:14;21.80;99.90
55083;DHT22;40978;52.850;6.506;2023-07-13T15:03:04;22.10;99.90
55083;DHT22;40978;52.850;6.506;2023-07-13T15:05:51;22.40;99.90
55083;DHT22;40978;52.850;6.506;2023-07-13T15:08:17;22.70;99.20
55083;DHT22;40978;52.850;6.506;2023-07-13T15:10:43;22.70;97.00
55083;DHT22;40978;52.850;6.506;2023-07-13T15:13:17;22.70;97.60
55083;DHT22;40978;52.850;6.506;2023-07-13T15:15:49;22.70;98.40
55083;DHT22;40978;52.850;6.506;2023-07-13T15:18:17;22.80;99.90
55083;DHT22;40978;52.850;6.506;2023-07-13T15:20:45;22.90;99.80
55083;DHT22;40978;52.850;6.506;2023-07-13T15:23:12;22.90;96.80
55083;DHT22;40978;52.850;6.506;2023-07-13T15:25:38;22.80;96.40
55083;DHT22;40978;52.850;6.506;2023-07-13T15:28:04;22.70;99.70
55083;DHT22;40978;52.850;6.506;2023-07-13T15:30:41;22.60;96.80
55083;DHT22;40978;52.850;6.506;2023-07-13T15:33:16;22.70;97.90
55083;DHT22;40978;52.850;6.506;2023-07-13T15:35:44;22.60;95.50
55083;DHT22;40978;52.850;6.506;2023-07-13T15:38:18;22.60;97.10
55083;DHT22;40978;52.850;6.506;2023-07-13T15:40:45;22.60;95.70
55083;DHT22;40978;52.850;6.506;2023-07-13T15:43:12;22.60;97.10
55083;DHT22;40978;52.850;6.506;2023-07-13T15:45:39;22.70;96.20
55083;DHT22;40978;52.850;6.506;2023-07-13T15:48:19;22.70;97.90
55083;DHT22;40978;52.850;6.506;2023-07-13T15:50:53;22.60;95.00
55083;DHT22;40978;52.850;6.506;2023-07-13T15:53:24;22.50;97.40
55083;DHT22;40978;52.850;6.506;2023-07-13T15:55:51;22.50;97.70
55083;DHT22;40978;52.850;6.506;2023-07-13T15:58:17;22.50;98.10
55083;DHT22;40978;52.850;6.506;2023-07-13T16:00:44;22.50;97.10
55083;DHT22;40978;52.850;6.506;2023-07-13T16:03:10;22.40;95.60
55083;DHT22;40978;52.850;6.506;2023-07-13T16:05:37;22.50;98.70
55083;DHT22;40978;52.850;6.506;2023-07-13T16:08:05;22.40;98.40
55083;DHT22;40978;52.850;6.506;2023-07-13T16:10:35;22.60;98.20
55083;DHT22;40978;52.850;6.506;2023-07-13T16:13:03;22.60;96.90